Terminal Aerodrome Forecast
Issued by NWS

Home | Current Version | Previous Version | Text Only | Print | Product List | Glossary On
Versions: 1 2 3 4 5 6 7 8 9 10 11 12 13 14 15 16 17 18
000
FTUS46 KPDT 300041 AAB
TAFALW
TAF AMD
KALW 300041Z 3001/3024 04007KT P6SM -SHRA SCT050 OVC100
      TEMPO 3001/3002 21020G30KT -TSRA BKN050CB
     FM300500 VRB05KT P6SM VCSH SCT080 BKN100
     FM301100 16006KT P6SM FEW080 BKN100
     FM301800 25007KT P6SM SCT120=

USA.gov is the U.S. government's official web portal to all federal, state and local government web resources and services.